Conche, Canada
Current Conditions -  °F | °C
As of 9:00 AM on Tuesday 27 Jan 2015 (Local Time) from CYAY Reporting Station
Clear Clear  
Wind Chill: -25°   Ceiling: Unl
Heat Index: -8°   Visibility: 9mi
Dew Point: -13°   Wind: 9mph
Humidity: 77%   Direction: 230°SW
Pressure: 30.51"   Gusts: NA
Location:  50.9°N, 55.9°W
Report Text: CYAY 271200Z AUTO 23008KT 9SM CLR M22/M25 A3051 RMK SLP335
Loading
Personal Weather Stations






























Interactive Weather Map New forecast layout! Learn more

10-Day Weather Forecast

Advertisements
Track Severe Weather on mobile